createdAt,value
2019-06-07T00:00:45.100Z,17.73
2019-06-07T00:03:23.996Z,18.00
2019-06-07T00:05:41.485Z,17.83
2019-06-07T00:08:17.119Z,17.37
2019-06-07T00:10:37.850Z,17.30
2019-06-07T00:13:05.196Z,17.50
2019-06-07T00:15:32.401Z,18.20
2019-06-07T00:17:59.533Z,17.57
2019-06-07T00:20:26.776Z,18.93
2019-06-07T00:22:54.005Z,20.47
2019-06-07T00:25:24.323Z,19.50
2019-06-07T00:27:50.419Z,19.57
2019-06-07T00:30:39.511Z,20.57
2019-06-07T00:32:47.323Z,21.93
2019-06-07T00:35:17.110Z,21.17
2019-06-07T00:37:43.903Z,20.93
2019-06-07T00:40:18.582Z,20.23
2019-06-07T00:42:41.719Z,21.30
2019-06-07T00:45:11.216Z,20.90
2019-06-07T00:47:38.496Z,22.27
2019-06-07T00:50:07.023Z,20.63
2019-06-07T00:55:03.796Z,21.97
2019-06-07T00:57:31.172Z,20.93
2019-06-07T00:59:58.484Z,21.80
2019-06-07T01:02:29.285Z,20.33
2019-06-07T01:04:54.844Z,21.03
2019-06-07T01:07:24.297Z,20.10
2019-06-07T01:09:51.318Z,19.63
2019-06-07T01:12:20.173Z,20.70
2019-06-07T01:14:47.689Z,21.23
2019-06-07T01:17:39.907Z,21.20
2019-06-07T01:19:54.878Z,20.63
2019-06-07T01:22:23.564Z,21.27
2019-06-07T01:24:51.404Z,19.83
2019-06-07T01:27:20.622Z,19.87
2019-06-07T01:29:47.776Z,19.00
2019-06-07T01:32:17.471Z,19.17
2019-06-07T01:34:44.251Z,19.83
2019-06-07T01:37:11.479Z,18.00
2019-06-07T01:39:38.676Z,18.83
2019-06-07T01:42:06.015Z,19.80
2019-06-07T01:44:33.210Z,21.27
2019-06-07T01:47:00.460Z,19.33
2019-06-07T01:49:29.502Z,18.10
2019-06-07T01:51:56.916Z,19.30
2019-06-07T01:54:55.574Z,20.53
2019-06-07T01:56:53.362Z,21.00
2019-06-07T01:59:21.935Z,22.70
2019-06-07T02:01:49.729Z,23.30
2019-06-07T02:04:19.333Z,23.30
2019-06-07T02:06:46.175Z,24.00
2019-06-07T02:09:13.608Z,23.33
2019-06-07T02:11:40.924Z,23.33
2019-06-07T02:14:08.298Z,23.17
2019-06-07T02:16:35.495Z,26.03
2019-06-07T02:19:03.928Z,25.20
2019-06-07T02:21:34.318Z,23.20
2019-06-07T02:24:00.549Z,24.70
2019-06-07T02:26:29.952Z,24.67
2019-06-07T02:28:56.845Z,25.97
2019-06-07T02:31:27.111Z,25.23
2019-06-07T02:33:53.299Z,22.90
2019-06-07T02:36:25.635Z,22.73
2019-06-07T02:38:49.753Z,22.53
2019-06-07T02:41:17.068Z,23.03
2019-06-07T02:43:44.418Z,23.07
2019-06-07T02:46:34.372Z,21.30
2019-06-07T02:48:53.856Z,20.73
2019-06-07T02:51:21.191Z,18.77
2019-06-07T02:53:48.482Z,19.30
2019-06-07T02:58:44.908Z,20.23
2019-06-07T03:01:12.401Z,19.03
2019-06-07T03:03:40.347Z,18.27
2019-06-07T03:06:09.008Z,17.70
2019-06-07T03:08:39.126Z,17.37
2019-06-07T03:11:06.954Z,16.63
2019-06-07T03:13:37.400Z,16.23
2019-06-07T03:16:07.035Z,15.73
2019-06-07T03:18:52.071Z,14.50
2019-06-07T03:21:21.152Z,15.60
2019-06-07T03:23:50.147Z,15.10
2019-06-07T03:26:17.513Z,15.63
2019-06-07T03:28:44.815Z,15.27
2019-06-07T03:31:12.091Z,15.60
2019-06-07T03:33:44.449Z,15.40
2019-06-07T03:36:23.462Z,14.70
2019-06-07T03:38:39.651Z,15.23
2019-06-07T03:41:06.800Z,13.67
2019-06-07T03:43:36.685Z,13.07
2019-06-07T03:46:03.291Z,11.20
2019-06-07T03:48:32.917Z,10.50
2019-06-07T03:51:04.493Z,10.83
2019-06-07T03:53:30.475Z,10.27
2019-06-07T03:55:58.091Z,9.83
2019-06-07T03:58:41.164Z,9.33
2019-06-07T04:00:55.061Z,9.37
2019-06-07T04:03:33.302Z,9.27
2019-06-07T04:05:51.646Z,8.33
2019-06-07T04:08:19.518Z,8.97
2019-06-07T04:10:59.102Z,7.20
2019-06-07T04:13:16.028Z,7.70
2019-06-07T04:15:43.327Z,6.93
2019-06-07T04:18:10.615Z,6.90
2019-06-07T04:20:40.710Z,6.93
2019-06-07T04:23:27.197Z,7.67
2019-06-07T04:25:39.447Z,7.03
2019-06-07T04:28:05.436Z,6.47
2019-06-07T04:30:41.884Z,7.20
2019-06-07T04:33:10.469Z,7.17
2019-06-07T04:35:40.025Z,7.07
2019-06-07T04:38:08.090Z,6.93
2019-06-07T04:40:36.836Z,7.23
2019-06-07T04:43:05.405Z,7.47
2019-06-07T04:45:41.860Z,7.67
2019-06-07T04:48:04.493Z,7.23
2019-06-07T04:50:35.393Z,7.30
2019-06-07T04:53:02.403Z,7.70
2019-06-07T04:55:31.417Z,7.60
2019-06-07T04:57:58.895Z,7.50
2019-06-07T05:00:49.754Z,7.87
2019-06-07T05:03:01.521Z,7.50
2019-06-07T05:05:29.600Z,7.80
2019-06-07T05:07:57.188Z,7.40
2019-06-07T05:10:24.553Z,7.27
2019-06-07T05:12:52.044Z,9.30
2019-06-07T05:15:19.642Z,9.13
2019-06-07T05:17:47.000Z,10.33
2019-06-07T05:20:18.279Z,10.00
2019-06-07T05:22:46.355Z,10.00
2019-06-07T05:25:14.409Z,11.13
2019-06-07T05:27:46.384Z,11.50
2019-06-07T05:30:50.922Z,12.03
2019-06-07T05:32:45.810Z,11.90
2019-06-07T05:35:13.573Z,12.80
2019-06-07T05:37:45.679Z,13.07
2019-06-07T05:40:11.689Z,13.93
2019-06-07T05:42:42.805Z,14.47
2019-06-07T05:45:08.632Z,14.43
2019-06-07T05:47:40.342Z,13.90
2019-06-07T05:50:05.758Z,12.87
2019-06-07T05:52:33.921Z,13.10
2019-06-07T05:55:02.600Z,13.17
2019-06-07T05:57:29.932Z,12.13
2019-06-07T05:59:57.299Z,10.80
2019-06-07T06:02:25.064Z,11.37
2019-06-07T06:04:52.571Z,10.10
2019-06-07T06:07:19.912Z,10.60
2019-06-07T06:09:47.683Z,9.53
2019-06-07T06:12:32.868Z,9.10
2019-06-07T06:14:46.873Z,9.37
2019-06-07T06:17:13.746Z,9.10
2019-06-07T06:19:47.541Z,8.47
2019-06-07T06:22:11.106Z,8.80
2019-06-07T06:24:39.461Z,9.03
2019-06-07T06:27:28.506Z,8.77
2019-06-07T06:29:38.677Z,8.73
2019-06-07T06:34:39.428Z,9.10
2019-06-07T06:37:04.894Z,8.37
2019-06-07T06:39:32.321Z,8.77
2019-06-07T06:42:03.720Z,8.10
2019-06-07T06:44:28.815Z,7.33
2019-06-07T06:46:58.110Z,7.30
2019-06-07T06:49:26.165Z,8.37
2019-06-07T06:51:53.991Z,9.23
2019-06-07T06:54:39.445Z,9.00
2019-06-07T06:56:52.802Z,8.90
2019-06-07T06:59:38.275Z,7.97
2019-06-07T07:01:52.341Z,7.77
2019-06-07T07:04:18.283Z,7.47
2019-06-07T07:06:47.919Z,7.93
2019-06-07T07:09:15.314Z,7.00
2019-06-07T07:11:55.176Z,6.87
2019-06-07T07:14:12.126Z,6.13
2019-06-07T07:16:39.726Z,6.50
2019-06-07T07:19:07.142Z,5.90
2019-06-07T07:21:34.699Z,5.97
2019-06-07T07:24:20.104Z,5.10
2019-06-07T07:26:31.166Z,5.30
2019-06-07T07:28:59.203Z,5.13
2019-06-07T07:31:27.220Z,5.03
2019-06-07T07:36:38.846Z,4.87
2019-06-07T07:39:00.718Z,4.70
2019-06-07T07:41:22.583Z,4.57
2019-06-07T07:43:59.384Z,4.10
2019-06-07T07:46:29.217Z,4.20
2019-06-07T07:48:48.608Z,3.87
2019-06-07T07:51:16.493Z,3.70
2019-06-07T07:53:51.649Z,3.90
2019-06-07T07:56:13.045Z,3.60
2019-06-07T07:58:40.580Z,3.50
2019-06-07T08:01:11.116Z,3.43
2019-06-07T08:03:37.581Z,3.27
2019-06-07T08:06:04.869Z,3.17
2019-06-07T08:08:32.237Z,3.57
2019-06-07T08:11:02.139Z,2.90
2019-06-07T08:13:28.872Z,2.67
2019-06-07T08:15:59.352Z,2.70
2019-06-07T08:18:25.362Z,2.73
2019-06-07T08:21:16.629Z,2.67
2019-06-07T08:23:22.806Z,2.70
2019-06-07T08:25:52.691Z,2.90
2019-06-07T08:28:19.458Z,2.80
2019-06-07T08:30:51.267Z,2.80
2019-06-07T08:33:25.845Z,2.20
2019-06-07T08:38:25.973Z,2.10
2019-06-07T08:40:44.253Z,2.10
2019-06-07T08:43:19.605Z,2.30
2019-06-07T08:45:40.992Z,1.70
2019-06-07T08:48:26.573Z,2.40
2019-06-07T08:50:37.495Z,2.00
2019-06-07T08:53:11.959Z,1.60
2019-06-07T08:55:33.960Z,2.00
2019-06-07T08:58:04.182Z,1.73
2019-06-07T09:00:47.733Z,1.70
2019-06-07T09:03:04.828Z,1.73
2019-06-07T09:05:29.275Z,1.70
2019-06-07T09:08:21.769Z,2.63
2019-06-07T09:10:25.716Z,1.80
2019-06-07T09:12:54.424Z,1.87
2019-06-07T09:15:24.081Z,2.03
2019-06-07T09:20:36.373Z,1.90
2019-06-07T09:22:51.717Z,1.90
2019-06-07T09:25:21.522Z,2.00
2019-06-07T09:27:48.593Z,2.27
2019-06-07T09:30:26.962Z,2.40
2019-06-07T09:32:54.203Z,2.00
2019-06-07T09:35:21.556Z,2.17
2019-06-07T09:38:07.874Z,2.30
2019-06-07T09:40:27.586Z,1.93
2019-06-07T09:43:38.228Z,2.07
2019-06-07T09:45:21.529Z,1.83
2019-06-07T09:47:48.957Z,1.90
2019-06-07T09:50:16.895Z,1.70
2019-06-07T09:52:57.939Z,1.90
2019-06-07T09:55:23.656Z,2.07
2019-06-07T09:57:42.565Z,1.90
2019-06-07T10:00:39.308Z,2.10
2019-06-07T10:02:42.721Z,2.07
2019-06-07T10:05:13.982Z,2.17
2019-06-07T10:07:59.262Z,2.00
2019-06-07T10:12:39.669Z,2.00
2019-06-07T10:15:08.935Z,2.00
2019-06-07T10:17:36.413Z,2.20
2019-06-07T10:20:05.703Z,2.17
2019-06-07T10:22:33.128Z,2.10
2019-06-07T10:25:01.856Z,2.10
2019-06-07T10:27:29.555Z,1.90
2019-06-07T10:29:56.801Z,2.07
2019-06-07T10:32:24.150Z,1.83
2019-06-07T10:34:51.791Z,2.20
2019-06-07T10:37:19.101Z,2.10
2019-06-07T10:39:48.959Z,2.00
2019-06-07T10:42:15.614Z,1.83
2019-06-07T10:44:42.932Z,1.93
2019-06-07T10:47:10.184Z,2.20
2019-06-07T10:49:37.514Z,1.80
2019-06-07T10:52:06.624Z,2.20
2019-06-07T10:54:33.894Z,1.90
2019-06-07T10:57:02.838Z,1.90
2019-06-07T10:59:30.270Z,1.60
2019-06-07T11:01:57.604Z,1.87
2019-06-07T11:04:25.744Z,1.93
2019-06-07T11:06:53.015Z,1.77
2019-06-07T11:09:20.459Z,1.83
2019-06-07T11:11:47.757Z,2.10
2019-06-07T11:14:15.007Z,2.00
2019-06-07T11:16:42.220Z,2.00
2019-06-07T11:19:13.681Z,2.47
2019-06-07T11:21:38.602Z,2.27
2019-06-07T11:24:06.147Z,1.97
2019-06-07T11:26:33.404Z,2.07
2019-06-07T11:29:00.606Z,1.80
2019-06-07T11:31:27.940Z,1.83
2019-06-07T11:33:55.148Z,2.00
2019-06-07T11:36:22.582Z,1.87
2019-06-07T11:38:49.825Z,1.77
2019-06-07T11:41:17.838Z,2.00
2019-06-07T11:43:45.285Z,1.93
2019-06-07T11:46:12.990Z,1.67
2019-06-07T11:48:40.446Z,1.80
2019-06-07T11:51:08.570Z,1.90
2019-06-07T11:53:35.796Z,1.90
2019-06-07T11:56:03.121Z,2.07
2019-06-07T11:58:30.436Z,1.67
2019-06-07T12:00:57.783Z,1.60
2019-06-07T12:03:25.156Z,1.67
2019-06-07T12:05:52.484Z,1.80
2019-06-07T12:08:19.788Z,1.70
2019-06-07T12:10:47.023Z,2.07
2019-06-07T12:13:15.568Z,1.70
2019-06-07T12:15:43.846Z,1.63
2019-06-07T12:18:11.295Z,1.60
2019-06-07T12:20:38.603Z,1.80
2019-06-07T12:23:05.956Z,1.60
2019-06-07T12:25:33.328Z,1.87
2019-06-07T12:28:00.668Z,1.60
2019-06-07T12:30:28.188Z,1.60
2019-06-07T12:32:55.508Z,1.80
2019-06-07T12:35:22.743Z,1.70
2019-06-07T12:37:49.952Z,1.60
2019-06-07T12:40:27.633Z,1.50
2019-06-07T12:42:47.057Z,1.60
2019-06-07T12:45:37.770Z,1.80
2019-06-07T12:47:45.110Z,1.80
2019-06-07T12:50:13.494Z,1.80
2019-06-07T12:52:40.940Z,1.50
2019-06-07T12:55:09.001Z,1.73
2019-06-07T12:57:36.321Z,1.90
2019-06-07T13:00:05.487Z,1.73
2019-06-07T13:02:32.802Z,1.70
2019-06-07T13:05:04.351Z,1.80
2019-06-07T13:07:29.163Z,1.83
2019-06-07T13:09:56.403Z,1.90
2019-06-07T13:12:23.843Z,1.77
2019-06-07T13:14:52.888Z,1.90
2019-06-07T13:17:20.416Z,2.07
2019-06-07T13:19:47.732Z,1.73
2019-06-07T13:22:16.171Z,2.00
2019-06-07T13:24:43.629Z,1.80
2019-06-07T13:27:10.956Z,1.97
2019-06-07T13:29:38.292Z,1.93
2019-06-07T13:32:05.399Z,2.00
2019-06-07T13:34:32.637Z,1.90
2019-06-07T13:36:59.968Z,1.90
2019-06-07T13:39:29.667Z,1.70
2019-06-07T13:41:56.437Z,1.93
2019-06-07T13:44:25.056Z,1.87
2019-06-07T13:46:52.491Z,1.90
2019-06-07T13:49:21.406Z,1.90
2019-06-07T13:51:48.874Z,2.27
2019-06-07T13:54:16.175Z,2.23
2019-06-07T13:57:00.842Z,2.20
2019-06-07T13:59:12.796Z,2.00
2019-06-07T14:01:40.221Z,2.00
2019-06-07T14:04:07.560Z,1.97
2019-06-07T14:06:34.817Z,2.10
2019-06-07T14:09:02.289Z,1.90
2019-06-07T14:11:31.498Z,1.93
2019-06-07T14:13:58.414Z,2.10
2019-06-07T14:16:26.300Z,1.83
2019-06-07T14:18:53.675Z,2.10
2019-06-07T14:21:20.896Z,2.00
2019-06-07T14:23:49.404Z,1.83
2019-06-07T14:26:16.794Z,1.90
2019-06-07T14:28:44.099Z,2.10
2019-06-07T14:31:11.432Z,2.00
2019-06-07T14:33:38.748Z,1.97
2019-06-07T14:36:05.979Z,2.20
2019-06-07T14:38:36.981Z,2.10
2019-06-07T14:41:02.647Z,2.00
2019-06-07T14:43:29.935Z,1.97
2019-06-07T14:45:57.207Z,2.20
2019-06-07T14:48:25.809Z,2.10
2019-06-07T14:50:53.280Z,2.00
2019-06-07T14:53:20.589Z,2.20
2019-06-07T14:55:48.036Z,2.33
2019-06-07T14:58:15.383Z,2.37
2019-06-07T15:00:43.536Z,2.30
2019-06-07T15:03:10.962Z,2.20
2019-06-07T15:05:40.367Z,2.60
2019-06-07T15:08:07.383Z,2.73
2019-06-07T15:10:35.289Z,2.57
2019-06-07T15:13:02.770Z,2.60
2019-06-07T15:15:30.834Z,2.47
2019-06-07T15:17:58.276Z,2.87
2019-06-07T15:20:25.817Z,2.60
2019-06-07T15:22:53.171Z,2.27
2019-06-07T15:25:20.509Z,2.50
2019-06-07T15:27:47.889Z,2.57
2019-06-07T15:30:15.204Z,2.40
2019-06-07T15:32:42.544Z,2.13
2019-06-07T15:35:09.969Z,2.40
2019-06-07T15:37:38.887Z,2.47
2019-06-07T15:40:07.069Z,2.50
2019-06-07T15:42:46.142Z,2.43
2019-06-07T15:45:03.996Z,2.40
2019-06-07T15:47:31.677Z,2.27
2019-06-07T15:49:59.091Z,2.60
2019-06-07T15:52:26.383Z,2.37
2019-06-07T15:54:53.705Z,2.30
2019-06-07T15:57:20.848Z,2.60
2019-06-07T15:59:48.092Z,2.53
2019-06-07T16:02:15.184Z,2.50
2019-06-07T16:04:42.444Z,2.53
2019-06-07T16:07:09.846Z,2.43
2019-06-07T16:09:38.403Z,2.57
2019-06-07T16:12:05.793Z,2.70
2019-06-07T16:14:33.193Z,2.63
2019-06-07T16:17:00.520Z,2.60
2019-06-07T16:19:27.766Z,2.60
2019-06-07T16:21:55.209Z,2.77
2019-06-07T16:24:22.469Z,2.60
2019-06-07T16:26:49.799Z,2.60
2019-06-07T16:29:17.025Z,2.93
2019-06-07T16:31:45.145Z,2.97
2019-06-07T16:34:12.634Z,3.00
2019-06-07T16:36:40.389Z,2.73
2019-06-07T16:39:08.001Z,3.20
2019-06-07T16:41:36.500Z,2.60
2019-06-07T16:44:03.857Z,2.90
2019-06-07T16:46:31.200Z,2.63
2019-06-07T16:48:58.506Z,2.60
2019-06-07T16:51:25.636Z,2.50
2019-06-07T16:53:52.861Z,2.40
2019-06-07T16:56:20.185Z,2.90
2019-06-07T16:58:48.691Z,2.67
2019-06-07T17:01:16.105Z,2.90
2019-06-07T17:03:43.603Z,2.67
2019-06-07T17:06:10.947Z,2.67
2019-06-07T17:08:38.281Z,2.60
2019-06-07T17:11:05.633Z,2.70
2019-06-07T17:13:34.069Z,2.93
2019-06-07T17:16:01.484Z,2.70
2019-06-07T17:18:28.742Z,2.80
2019-06-07T17:20:56.379Z,2.37
2019-06-07T17:23:23.722Z,2.90
2019-06-07T17:25:51.023Z,2.90
2019-06-07T17:28:18.281Z,3.27
2019-06-07T17:30:46.108Z,2.83
2019-06-07T17:33:13.536Z,2.90
2019-06-07T17:35:42.107Z,2.97
2019-06-07T17:38:09.443Z,2.50
2019-06-07T17:40:36.772Z,2.23
2019-06-07T17:43:04.179Z,2.43
2019-06-07T17:45:31.512Z,2.47
2019-06-07T17:47:58.733Z,2.20
2019-06-07T17:50:26.066Z,2.30
2019-06-07T17:52:53.374Z,2.13
2019-06-07T17:55:20.807Z,2.30
2019-06-07T17:57:48.645Z,2.20
2019-06-07T18:00:33.639Z,2.27
2019-06-07T18:02:46.825Z,2.40
2019-06-07T18:05:14.791Z,2.50
2019-06-07T18:07:43.462Z,2.30
2019-06-07T18:10:11.117Z,2.33
2019-06-07T18:12:38.446Z,2.10
2019-06-07T18:15:06.269Z,2.30
2019-06-07T18:17:34.815Z,2.40
2019-06-07T18:20:02.840Z,2.23
2019-06-07T18:22:30.143Z,2.30
2019-06-07T18:24:57.479Z,2.10
2019-06-07T18:27:25.012Z,2.60
2019-06-07T18:29:52.752Z,2.77
2019-06-07T18:32:20.092Z,2.60
2019-06-07T18:34:48.684Z,2.50
2019-06-07T18:37:16.142Z,2.57
2019-06-07T18:39:43.796Z,2.70
2019-06-07T18:42:11.121Z,2.50
2019-06-07T18:44:38.459Z,2.70
2019-06-07T18:47:05.803Z,2.53
2019-06-07T18:49:35.981Z,2.63
2019-06-07T18:52:18.147Z,2.60
2019-06-07T18:54:46.673Z,2.57
2019-06-07T18:57:14.103Z,2.60
2019-06-07T18:59:41.442Z,2.63
2019-06-07T19:02:08.767Z,2.90
2019-06-07T19:04:35.976Z,2.73
2019-06-07T19:07:03.250Z,2.90
2019-06-07T19:09:30.556Z,3.00
2019-06-07T19:11:58.986Z,3.03
2019-06-07T19:14:36.640Z,2.90
2019-06-07T19:16:55.613Z,3.20
2019-06-07T19:19:22.931Z,3.33
2019-06-07T19:21:52.053Z,3.40
2019-06-07T19:24:19.276Z,3.40
2019-06-07T19:26:46.503Z,3.13
2019-06-07T19:29:13.829Z,3.27
2019-06-07T19:31:41.170Z,3.40
2019-06-07T19:34:08.719Z,3.80
2019-06-07T19:36:48.323Z,3.30
2019-06-07T19:39:05.920Z,3.10
2019-06-07T19:41:33.306Z,3.23
2019-06-07T19:44:00.956Z,3.50
2019-06-07T19:46:28.297Z,3.50
2019-06-07T19:48:56.520Z,3.00
2019-06-07T19:51:23.970Z,3.10
2019-06-07T19:53:51.294Z,3.30
2019-06-07T19:56:18.635Z,3.57
2019-06-07T19:58:45.848Z,3.57
2019-06-07T20:01:13.174Z,4.10
2019-06-07T20:03:40.417Z,3.83
2019-06-07T20:06:07.721Z,4.00
2019-06-07T20:08:35.089Z,3.47
2019-06-07T20:11:02.769Z,3.33
2019-06-07T20:13:30.208Z,3.60
2019-06-07T20:15:57.424Z,3.93
2019-06-07T20:18:27.781Z,3.90
2019-06-07T20:20:53.870Z,3.70
2019-06-07T20:23:21.123Z,3.50
2019-06-07T20:25:48.484Z,4.13
2019-06-07T20:28:15.731Z,4.67
2019-06-07T20:30:43.207Z,4.87
2019-06-07T20:33:10.511Z,5.00
2019-06-07T20:35:38.126Z,4.23
2019-06-07T20:38:06.532Z,4.50
2019-06-07T20:40:35.023Z,4.27
2019-06-07T20:43:03.523Z,4.73
2019-06-07T20:45:34.077Z,4.70
2019-06-07T20:48:02.076Z,4.40
2019-06-07T20:50:30.293Z,4.57
2019-06-07T20:52:59.859Z,5.30
2019-06-07T20:55:28.079Z,4.60
2019-06-07T20:58:00.780Z,4.40
2019-06-07T21:00:29.445Z,4.33
2019-06-07T21:02:57.198Z,4.70
2019-06-07T21:05:25.653Z,4.37
2019-06-07T21:07:53.471Z,4.73
2019-06-07T21:10:21.854Z,5.73
2019-06-07T21:12:50.340Z,5.47
2019-06-07T21:15:18.219Z,5.23
2019-06-07T21:17:46.699Z,4.93
2019-06-07T21:20:14.982Z,6.07
2019-06-07T21:22:43.154Z,5.80
2019-06-07T21:25:11.689Z,6.00
2019-06-07T21:27:39.456Z,5.30
2019-06-07T21:30:09.492Z,5.70
2019-06-07T21:32:37.453Z,5.53
2019-06-07T21:35:05.879Z,5.90
2019-06-07T21:37:33.938Z,4.20
2019-06-07T21:40:02.167Z,5.43
2019-06-07T21:42:29.995Z,6.20
2019-06-07T21:44:57.699Z,6.50
2019-06-07T21:47:25.617Z,7.40
2019-06-07T21:49:53.367Z,7.70
2019-06-07T21:52:21.190Z,8.53
2019-06-07T21:54:48.869Z,7.40
2019-06-07T21:57:16.651Z,7.53
2019-06-07T21:59:44.575Z,7.53
2019-06-07T22:02:13.627Z,7.37
2019-06-07T22:04:41.543Z,6.10
2019-06-07T22:07:09.653Z,7.00
2019-06-07T22:09:37.309Z,7.37
2019-06-07T22:12:06.032Z,6.50
2019-06-07T22:14:33.891Z,6.80
2019-06-07T22:17:01.695Z,6.13
2019-06-07T22:19:29.488Z,6.43
2019-06-07T22:22:02.533Z,6.67
2019-06-07T22:24:26.714Z,6.20
2019-06-07T22:26:54.520Z,6.53
2019-06-07T22:29:22.226Z,6.73
2019-06-07T22:31:49.918Z,6.27
2019-06-07T22:34:19.118Z,7.10
2019-06-07T22:36:46.853Z,7.57
2019-06-07T22:39:15.823Z,6.57
2019-06-07T22:41:43.730Z,7.50
2019-06-07T22:44:11.423Z,7.70
2019-06-07T22:46:39.210Z,7.50
2019-06-07T22:49:07.215Z,18.07
2019-06-07T22:51:35.419Z,8.50
2019-06-07T22:54:03.340Z,9.10
2019-06-07T22:56:36.996Z,9.57
2019-06-07T22:59:04.773Z,7.60
2019-06-07T23:01:32.567Z,7.93
2019-06-07T23:04:00.575Z,7.63
2019-06-07T23:06:28.276Z,6.90
2019-06-07T23:08:56.316Z,6.70
2019-06-07T23:11:24.496Z,6.77
2019-06-07T23:13:52.685Z,7.83
2019-06-07T23:16:23.548Z,8.30
2019-06-07T23:18:51.849Z,8.47
2019-06-07T23:21:20.415Z,12.63
2019-06-07T23:23:48.357Z,11.23
2019-06-07T23:26:16.388Z,13.10
2019-06-07T23:28:44.624Z,15.37
2019-06-07T23:31:12.928Z,18.10
2019-06-07T23:33:41.204Z,10.37
2019-06-07T23:36:10.903Z,9.00
2019-06-07T23:38:39.396Z,8.50
2019-06-07T23:41:07.413Z,8.43
2019-06-07T23:43:35.784Z,8.83
2019-06-07T23:46:03.835Z,8.30
2019-06-07T23:48:31.887Z,7.70
2019-06-07T23:50:59.782Z,6.53
2019-06-07T23:53:27.724Z,7.30
2019-06-07T23:55:55.467Z,7.10
2019-06-07T23:58:23.395Z,8.93
